»·PEaware :: SWA2444 KLAS-KBOI

SWA2444 :: KLAS-KBOI

FLIGHT INFORMATION

Flight Status: Arrived
Operator:
Southwest Airlines
More flights by this operator :: More flights under this callsign
Pilot: Tristan Z. (4790)
Aircraft: BOEING 737-700
(B737)
More flights by this aircraft type
Origin: KLAS McCarran Intl
United States
Destination: KBOI Boise Air Terminal/Gowen
United States
More flights between these airports :: More routes between these airports
Route: STAAV8 MLF ELY BROPH SPUUD3
File this flight plan on PilotEdge
Remarks:
Altitude:
(Current/Filed)
38,000ft
Speed:
(Current/Filed)
450kts
Departed: 19-Apr-20 10:32 AM
Arrived: 19-Apr-20 12:00 PM
Distance/Time
Traveled:
452nm/1:28
Distance/Time
To Go:
Arrived

Flight Plot

Page will automatically refresh every two minutes.


Map Options




Map Legend


Flown Route
Filed Route
Departure Airport
Arrival Airport
Navaid (VOR, NDB)
Fix

Horizontal Profiles

Position Reports

Time Latitude Longitude Heading Altitude Ground
Speed
19-Apr-20 10:08 36.081624 -115.146317 255 2189ft 0kts
19-Apr-20 10:10 36.081624 -115.146317 255 2189ft 0kts
19-Apr-20 10:11 36.081624 -115.146317 255 2189ft 0kts
19-Apr-20 10:12 36.081624 -115.146317 255 2189ft 0kts
19-Apr-20 10:13 36.081624 -115.146317 255 2189ft 0kts
19-Apr-20 10:14 36.081624 -115.146317 255 2189ft 0kts
19-Apr-20 10:15 36.081624 -115.146317 255 2189ft 0kts
19-Apr-20 10:16 36.081624 -115.146317 255 2189ft 0kts
19-Apr-20 10:17 36.081624 -115.146317 255 2189ft 0kts
19-Apr-20 10:18 36.081624 -115.146317 255 2189ft 0kts
19-Apr-20 10:19 36.081624 -115.146317 255 2189ft 0kts
19-Apr-20 10:20 36.081624 -115.146317 255 2189ft 0kts
19-Apr-20 10:21 36.081623 -115.146317 254 2189ft 0kts
19-Apr-20 10:22 36.081860 -115.145803 224 2189ft 2kts
19-Apr-20 10:23 36.082019 -115.145645 213 2189ft 0kts
19-Apr-20 10:24 36.082019 -115.145645 213 2189ft 0kts
19-Apr-20 10:25 36.081583 -115.145412 152 2189ft 7kts
19-Apr-20 10:26 36.079081 -115.144853 180 2189ft 7kts
19-Apr-20 10:27 36.078269 -115.141862 85 2189ft 24kts
19-Apr-20 10:27 36.078262 -115.135799 89 2189ft 24kts
19-Apr-20 10:29 36.078277 -115.127029 90 2189ft 24kts
19-Apr-20 10:30 36.076720 -115.121358 177 2189ft 14kts
19-Apr-20 10:30 36.076456 -115.121594 267 2188ft 0kts
19-Apr-20 10:32 36.076286 -115.156694 269 3034ft 185kts
19-Apr-20 10:33 36.076133 -115.213741 270 5349ft 234kts
19-Apr-20 10:33 36.084409 -115.273377 311 8024ft 246kts
19-Apr-20 10:35 36.157432 -115.286551 42 11356ft 259kts
19-Apr-20 10:36 36.192260 -115.194962 76 12677ft 338kts
19-Apr-20 10:36 36.197183 -115.096393 89 15331ft 352kts
19-Apr-20 10:37 36.198218 -114.972719 89 18183ft 366kts
19-Apr-20 10:38 36.203801 -114.844887 75 19007ft 375kts
19-Apr-20 10:39 36.255165 -114.732085 44 21798ft 388kts
19-Apr-20 10:40 36.341499 -114.647594 37 24289ft 403kts
19-Apr-20 10:41 36.431961 -114.561764 37 26537ft 418kts
19-Apr-20 10:42 36.525397 -114.473078 37 28575ft 431kts
19-Apr-20 10:43 36.624503 -114.392257 32 30431ft 443kts
19-Apr-20 10:44 36.726739 -114.310436 23 31291ft 474kts
19-Apr-20 10:45 36.836537 -114.223208 22 33757ft 463kts
19-Apr-20 10:46 36.944211 -114.137431 22 35787ft 457kts
19-Apr-20 10:47 37.051153 -114.052294 20 37296ft 458kts
19-Apr-20 10:48 37.159396 -113.966222 20 38106ft 472kts
19-Apr-20 10:49 37.270823 -113.877468 20 38104ft 475kts
19-Apr-20 10:50 37.381658 -113.789336 19 38104ft 473kts
19-Apr-20 10:51 37.492530 -113.701224 19 38107ft 473kts
19-Apr-20 10:52 37.604008 -113.612656 19 38106ft 473kts
19-Apr-20 10:53 37.715157 -113.524418 19 38108ft 473kts
19-Apr-20 10:54 37.826124 -113.436365 19 38111ft 472kts
19-Apr-20 10:55 37.936826 -113.348603 19 38111ft 472kts
19-Apr-20 10:56 38.048564 -113.260057 19 38092ft 474kts
19-Apr-20 10:57 38.161575 -113.178720 7 38085ft 451kts
19-Apr-20 10:58 38.279308 -113.154634 344 38073ft 413kts
19-Apr-20 10:59 38.386497 -113.184163 326 38070ft 383kts
19-Apr-20 11:00 38.473126 -113.253042 310 38069ft 359kts
19-Apr-20 11:01 38.534125 -113.349917 295 38067ft 346kts
19-Apr-20 11:02 38.584334 -113.454864 297 38063ft 348kts
19-Apr-20 11:03 38.636897 -113.558541 298 38062ft 348kts
19-Apr-20 11:04 38.685054 -113.653386 296 38063ft 357kts
19-Apr-20 11:05 38.739036 -113.759717 296 38078ft 356kts
19-Apr-20 11:06 38.793072 -113.865691 296 38086ft 357kts
19-Apr-20 11:07 38.847229 -113.971863 296 38095ft 357kts
19-Apr-20 11:08 38.901579 -114.078174 297 38100ft 361kts
19-Apr-20 11:09 38.957563 -114.187478 298 38098ft 375kts
19-Apr-20 11:10 39.016174 -114.301624 299 38099ft 390kts
19-Apr-20 11:11 39.076616 -114.419140 299 38092ft 396kts
19-Apr-20 11:12 39.137336 -114.536991 300 38092ft 395kts
19-Apr-20 11:13 39.198134 -114.654790 299 38094ft 395kts
19-Apr-20 11:14 39.261850 -114.769707 310 38111ft 400kts
19-Apr-20 11:15 39.360124 -114.841271 338 38108ft 425kts
19-Apr-20 11:16 39.480697 -114.849864 352 38103ft 439kts
19-Apr-20 11:17 39.602360 -114.850692 352 38099ft 439kts
19-Apr-20 11:18 39.724098 -114.851614 352 38101ft 438kts
19-Apr-20 11:19 39.845836 -114.852624 352 38104ft 440kts
19-Apr-20 11:20 39.968251 -114.853554 352 38102ft 439kts
19-Apr-20 11:21 40.089819 -114.854551 352 38102ft 441kts
19-Apr-20 11:22 40.211609 -114.855480 352 38099ft 439kts
19-Apr-20 11:23 40.333676 -114.856534 352 38082ft 440kts
19-Apr-20 11:24 40.455258 -114.857466 352 38080ft 439kts
19-Apr-20 11:25 40.577505 -114.858440 352 38078ft 439kts
19-Apr-20 11:26 40.698908 -114.859392 352 38080ft 438kts
19-Apr-20 11:27 40.821057 -114.860358 352 38080ft 438kts
19-Apr-20 11:28 40.942840 -114.861346 352 38079ft 438kts
19-Apr-20 11:29 41.063399 -114.862325 355 38077ft 431kts
19-Apr-20 11:30 41.183853 -114.863272 357 38079ft 435kts
19-Apr-20 11:31 41.304582 -114.864225 357 38079ft 434kts
19-Apr-20 11:32 41.425125 -114.865185 357 38079ft 434kts
19-Apr-20 11:33 41.545160 -114.866140 357 38076ft 434kts
19-Apr-20 11:34 41.665806 -114.867100 357 38073ft 435kts
19-Apr-20 11:35 41.786277 -114.868058 357 38073ft 434kts
19-Apr-20 11:36 41.906502 -114.869014 357 38072ft 435kts
19-Apr-20 11:37 42.026951 -114.869987 357 38076ft 446kts
19-Apr-20 11:38 42.151769 -114.870960 357 38074ft 449kts
19-Apr-20 11:39 42.274479 -114.871940 357 37485ft 449kts
19-Apr-20 11:40 42.397912 -114.872915 357 34708ft 446kts
19-Apr-20 11:41 42.521211 -114.873902 357 31040ft 455kts
19-Apr-20 11:42 42.647807 -114.879987 347 27375ft 462kts
19-Apr-20 11:43 42.763538 -114.947309 323 24356ft 445kts
19-Apr-20 11:44 42.850758 -115.061694 312 21650ft 435kts
19-Apr-20 11:45 42.930971 -115.177335 313 19098ft 421kts
19-Apr-20 11:46 43.008804 -115.290868 314 16536ft 412kts
19-Apr-20 11:47 43.085176 -115.402201 314 14114ft 398kts
19-Apr-20 11:48 43.159725 -115.510843 314 12601ft 392kts
19-Apr-20 11:49 43.228630 -115.611878 314 11300ft 329kts
19-Apr-20 11:50 43.286210 -115.695010 317 9962ft 280kts
19-Apr-20 11:51 43.341725 -115.765388 317 8873ft 262kts
19-Apr-20 11:52 43.391935 -115.831897 312 8038ft 243kts
19-Apr-20 11:53 43.439873 -115.898251 316 7166ft 247kts
19-Apr-20 11:54 43.479339 -115.971578 296 6613ft 234kts
19-Apr-20 11:55 43.505085 -116.046898 297 5380ft 196kts
19-Apr-20 11:56 43.525657 -116.106714 297 4404ft 143kts
19-Apr-20 11:57 43.541192 -116.152026 296 3719ft 130kts
19-Apr-20 11:58 43.555542 -116.193985 295 3050ft 127kts
19-Apr-20 11:59 43.564235 -116.219266 296 2879ft 34kts
19-Apr-20 12:00 43.566650 -116.223888 33 2879ft 7kts
19-Apr-20 12:01 43.566327 -116.221684 69 2879ft 8kts
19-Apr-20 12:02 43.566548 -116.220043 35 2879ft 6kts
19-Apr-20 12:03 43.566905 -116.219726 31 2879ft 0kts
19-Apr-20 12:04 43.566905 -116.219726 31 2879ft 0kts

Navigation Log

Ident Type
Flight plan parsing failed, navigation log unavailable